»·PEaware :: N375DS KAMA-KABQ

N375DS :: KAMA-KABQ

FLIGHT INFORMATION

Flight Status: Arrived
Operator: Privately registered:
United States
More flights under this callsign
Pilot: Mark H. (209)
Aircraft: BEECH AIRCRAFT BARON
(BE58)
More flights by this aircraft type
Origin: KAMA Amarillo Intl
United States
Destination: KABQ Albuquerque Intl Sunport
United States
More flights between these airports :: More routes between these airports
Route: +PNH VEGGE TCC MIERA2
File this flight plan on PilotEdge
Remarks:
Altitude:
(Current/Filed)
8,000ft
Speed:
(Current/Filed)
200kts
Departed: 08-Jul-17 07:24 PM
Arrived: 08-Jul-17 09:03 PM
Distance/Time
Traveled:
241nm/1:39
Distance/Time
To Go:
Arrived

Flight Plot

Page will automatically refresh every two minutes.

Flight plan parsing failed; only flown route is shown


Map Options




Map Legend


Flown Route
Filed Route
Departure Airport
Arrival Airport
Navaid (VOR, NDB)
Fix

Horizontal Profiles

Position Reports

Time Latitude Longitude Heading Altitude Ground
Speed
08-Jul-17 18:54 35.225756 -101.700620 135 3610ft 0kts
08-Jul-17 18:56 35.225756 -101.700620 135 3610ft 0kts
08-Jul-17 18:57 35.225756 -101.700620 135 3610ft 0kts
08-Jul-17 18:58 35.225756 -101.700620 135 3610ft 0kts
08-Jul-17 18:59 35.225756 -101.700620 135 3610ft 0kts
08-Jul-17 19:00 35.225756 -101.700620 135 3610ft 0kts
08-Jul-17 19:01 35.225756 -101.700620 135 3610ft 0kts
08-Jul-17 19:02 35.225756 -101.700620 135 3610ft 0kts
08-Jul-17 19:03 35.225756 -101.700620 135 3610ft 0kts
08-Jul-17 19:12 35.225756 -101.700619 135 3610ft 0kts
08-Jul-17 19:13 35.225756 -101.700619 135 3610ft 0kts
08-Jul-17 19:14 35.225756 -101.700619 135 3610ft 0kts
08-Jul-17 19:15 35.225756 -101.700619 135 3610ft 0kts
08-Jul-17 19:16 35.225756 -101.700619 135 3610ft 0kts
08-Jul-17 19:17 35.225756 -101.700619 135 3610ft 0kts
08-Jul-17 19:18 35.225756 -101.700619 135 3610ft 0kts
08-Jul-17 19:19 35.225756 -101.700619 135 3610ft 0kts
08-Jul-17 19:20 35.225756 -101.700619 135 3610ft 0kts
08-Jul-17 19:21 35.225756 -101.700619 135 3610ft 0kts
08-Jul-17 19:22 35.225748 -101.700611 135 3610ft 0kts
08-Jul-17 19:23 35.226777 -101.700772 317 3610ft 10kts
08-Jul-17 19:24 35.228498 -101.699398 47 3610ft 19kts
08-Jul-17 19:25 35.230057 -101.699642 317 3610ft 0kts
08-Jul-17 19:26 35.230220 -101.699821 317 3610ft 9kts
08-Jul-17 19:27 35.219089 -101.714463 217 3836ft 97kts
08-Jul-17 19:28 35.199554 -101.739072 232 4598ft 116kts
08-Jul-17 19:29 35.179829 -101.774976 233 5358ft 134kts
08-Jul-17 19:30 35.164393 -101.811972 283 5993ft 141kts
08-Jul-17 19:31 35.180926 -101.855065 292 6707ft 140kts
08-Jul-17 19:32 35.196789 -101.897782 290 7394ft 135kts
08-Jul-17 19:33 35.210864 -101.939448 287 8074ft 129kts
08-Jul-17 19:34 35.223310 -101.980583 284 8612ft 129kts
08-Jul-17 19:35 35.227531 -102.023542 266 9108ft 125kts
08-Jul-17 19:36 35.226950 -102.065282 264 9590ft 119kts
08-Jul-17 19:37 35.226044 -102.104423 264 10056ft 110kts
08-Jul-17 19:38 35.225137 -102.141643 264 10418ft 112kts
08-Jul-17 19:39 35.224242 -102.180834 265 10735ft 117kts
08-Jul-17 19:40 35.223311 -102.220254 265 11033ft 117kts
08-Jul-17 19:41 35.222352 -102.259730 265 11324ft 114kts
08-Jul-17 19:42 35.221401 -102.297904 265 11605ft 109kts
08-Jul-17 19:43 35.220487 -102.333719 264 11872ft 101kts
08-Jul-17 19:44 35.219679 -102.367461 264 12013ft 102kts
08-Jul-17 19:45 35.218604 -102.405702 266 12022ft 127kts
08-Jul-17 19:46 35.217508 -102.452983 266 12012ft 147kts
08-Jul-17 19:47 35.216187 -102.504427 266 12007ft 154kts
08-Jul-17 19:48 35.214775 -102.557303 266 12005ft 156kts
08-Jul-17 19:49 35.213317 -102.610683 266 12008ft 157kts
08-Jul-17 19:50 35.211833 -102.664205 266 12020ft 157kts
08-Jul-17 19:51 35.210312 -102.717648 266 12033ft 158kts
08-Jul-17 19:52 35.208763 -102.771515 266 12031ft 158kts
08-Jul-17 19:53 35.207181 -102.825709 266 12002ft 160kts
08-Jul-17 19:54 35.205573 -102.879973 265 12009ft 159kts
08-Jul-17 19:55 35.203938 -102.934179 265 12033ft 160kts
08-Jul-17 19:56 35.202261 -102.989039 265 11999ft 162kts
08-Jul-17 19:57 35.200561 -103.043882 265 12000ft 161kts
08-Jul-17 19:58 35.198833 -103.098810 265 12002ft 161kts
08-Jul-17 19:59 35.197097 -103.153140 265 12010ft 161kts
08-Jul-17 20:00 35.195317 -103.208049 265 12011ft 161kts
08-Jul-17 20:01 35.193515 -103.262992 265 12001ft 162kts
08-Jul-17 20:02 35.191679 -103.318199 265 12003ft 162kts
08-Jul-17 20:03 35.189820 -103.373328 265 12007ft 162kts
08-Jul-17 20:04 35.187934 -103.428500 264 12005ft 162kts
08-Jul-17 20:05 35.186020 -103.483673 264 12006ft 162kts
08-Jul-17 20:06 35.184076 -103.539000 264 12004ft 163kts
08-Jul-17 20:07 35.182072 -103.594387 264 12003ft 163kts
08-Jul-17 20:08 35.179749 -103.649849 264 12002ft 163kts
08-Jul-17 20:09 35.177351 -103.705242 264 12001ft 163kts
08-Jul-17 20:10 35.174923 -103.760579 264 12000ft 163kts
08-Jul-17 20:11 35.172466 -103.815959 264 12000ft 163kts
08-Jul-17 20:12 35.169974 -103.871511 264 11994ft 163kts
08-Jul-17 20:13 35.167466 -103.926868 264 12000ft 163kts
08-Jul-17 20:14 35.164927 -103.982289 264 11999ft 163kts
08-Jul-17 20:15 35.162364 -104.037787 263 12007ft 163kts
08-Jul-17 20:16 35.159780 -104.093026 263 12025ft 162kts
08-Jul-17 20:17 35.157163 -104.148513 263 12001ft 163kts
08-Jul-17 20:18 35.154504 -104.204320 263 11952ft 166kts
08-Jul-17 20:19 35.151813 -104.260380 263 11948ft 164kts
08-Jul-17 20:20 35.149112 -104.316090 263 11975ft 162kts
08-Jul-17 20:21 35.146402 -104.371318 263 11987ft 163kts
08-Jul-17 20:22 35.143667 -104.426644 263 11975ft 164kts
08-Jul-17 20:23 35.140881 -104.482489 263 11965ft 164kts
08-Jul-17 20:24 35.138070 -104.538201 263 11966ft 163kts
08-Jul-17 20:25 35.135261 -104.593278 264 11991ft 162kts
08-Jul-17 20:26 35.132429 -104.648467 264 11983ft 162kts
08-Jul-17 20:27 35.129561 -104.703900 264 11953ft 163kts
08-Jul-17 20:28 35.126676 -104.759165 264 11947ft 162kts
08-Jul-17 20:29 35.123759 -104.814348 266 11930ft 163kts
08-Jul-17 20:30 35.120815 -104.869903 266 11916ft 163kts
08-Jul-17 20:31 35.118090 -104.920825 266 11889ft 164kts
08-Jul-17 20:32 35.115801 -104.963368 266 11886ft 164kts
08-Jul-17 20:33 35.112785 -105.018921 267 11875ft 164kts
08-Jul-17 20:34 35.106660 -105.074448 262 11857ft 165kts
08-Jul-17 20:35 35.098967 -105.130044 262 11837ft 166kts
08-Jul-17 20:36 35.091142 -105.185775 262 11832ft 166kts
08-Jul-17 20:37 35.083275 -105.241498 262 11817ft 167kts
08-Jul-17 20:38 35.075250 -105.298161 262 11752ft 170kts
08-Jul-17 20:39 35.067145 -105.355175 262 11729ft 170kts
08-Jul-17 20:40 35.059345 -105.409857 262 11723ft 170kts
08-Jul-17 20:41 35.051200 -105.466778 262 11724ft 170kts
08-Jul-17 20:42 35.043022 -105.523739 262 11724ft 170kts
08-Jul-17 20:43 35.034819 -105.580672 262 11724ft 170kts
08-Jul-17 20:44 35.026593 -105.637572 262 11724ft 170kts
08-Jul-17 20:45 35.018343 -105.694444 262 11724ft 170kts
08-Jul-17 20:46 35.010057 -105.751366 262 11724ft 170kts
08-Jul-17 20:47 35.001895 -105.807097 262 11957ft 159kts
08-Jul-17 20:48 34.993936 -105.861567 262 12002ft 166kts
08-Jul-17 20:49 34.985709 -105.917580 262 12000ft 168kts
08-Jul-17 20:50 34.977401 -105.973931 262 11962ft 170kts
08-Jul-17 20:51 34.968994 -106.030729 262 11955ft 169kts
08-Jul-17 20:52 34.960634 -106.087075 262 11933ft 171kts
08-Jul-17 20:53 34.960270 -106.138383 279 11381ft 134kts
08-Jul-17 20:54 34.965199 -106.180816 276 10769ft 123kts
08-Jul-17 20:55 34.970382 -106.222588 275 10090ft 127kts
08-Jul-17 20:56 34.976698 -106.273752 276 10028ft 167kts
08-Jul-17 20:57 34.984026 -106.331753 277 9724ft 171kts
08-Jul-17 20:58 34.998209 -106.384825 293 9195ft 162kts
08-Jul-17 20:59 35.020449 -106.431949 295 8842ft 149kts
08-Jul-17 21:00 35.037942 -106.477468 288 8385ft 154kts
08-Jul-17 21:01 35.044263 -106.531559 265 7255ft 159kts
08-Jul-17 21:02 35.067214 -106.569957 353 6851ft 163kts
08-Jul-17 21:03 35.074956 -106.542811 151 6901ft 104kts
08-Jul-17 21:04 35.048079 -106.554879 220 5888ft 118kts
08-Jul-17 21:05 35.044159 -106.590917 270 5358ft 71kts
08-Jul-17 21:06 35.044324 -106.600317 267 5358ft 12kts
08-Jul-17 21:07 35.043090 -106.603333 236 5358ft 10kts
08-Jul-17 21:08 35.041794 -106.605485 198 5358ft 16kts
08-Jul-17 21:09 35.040384 -106.606833 201 5358ft 0kts
08-Jul-17 21:10 35.041488 -106.605551 16 5358ft 10kts
08-Jul-17 21:11 35.041784 -106.605437 18 5358ft 0kts
08-Jul-17 21:12 35.042141 -106.605306 2 5358ft 9kts
08-Jul-17 21:13 35.042418 -106.610377 270 5358ft 5kts
08-Jul-17 21:14 35.042014 -106.610442 156 5358ft 0kts

Navigation Log

Ident Type
Flight plan parsing failed, navigation log unavailable